createdAt,value
2018-07-12T00:01:13.659Z,18.30
2018-07-12T00:03:40.152Z,28.77
2018-07-12T00:06:06.668Z,23.50
2018-07-12T00:08:33.144Z,17.73
2018-07-12T00:10:59.637Z,18.40
2018-07-12T00:13:26.109Z,15.40
2018-07-12T00:15:52.596Z,17.53
2018-07-12T00:18:19.084Z,12.07
2018-07-12T00:20:45.972Z,11.93
2018-07-12T00:23:12.449Z,15.27
2018-07-12T00:25:39.009Z,18.10
2018-07-12T00:28:05.510Z,15.03
2018-07-12T00:30:31.983Z,17.03
2018-07-12T00:32:58.493Z,16.50
2018-07-12T00:35:25.004Z,16.33
2018-07-12T00:37:51.580Z,12.10
2018-07-12T00:40:18.106Z,18.70
2018-07-12T00:42:44.591Z,15.37
2018-07-12T00:45:11.087Z,15.43
2018-07-12T00:47:37.673Z,14.97
2018-07-12T00:50:04.289Z,18.63
2018-07-12T00:52:31.065Z,14.27
2018-07-12T00:54:57.585Z,15.83
2018-07-12T00:57:24.065Z,18.63
2018-07-12T00:59:50.547Z,18.60
2018-07-12T01:02:17.038Z,18.50
2018-07-12T01:04:43.523Z,13.97
2018-07-12T01:07:10.012Z,17.57
2018-07-12T01:09:36.539Z,19.50
2018-07-12T01:12:03.010Z,14.80
2018-07-12T01:14:29.492Z,13.30
2018-07-12T01:16:56.445Z,15.83
2018-07-12T01:19:22.906Z,18.23
2018-07-12T01:21:49.392Z,21.13
2018-07-12T01:24:15.882Z,18.10
2018-07-12T01:26:42.360Z,15.73
2018-07-12T01:29:08.889Z,19.40
2018-07-12T01:31:35.395Z,17.87
2018-07-12T01:34:01.868Z,14.60
2018-07-12T01:36:28.331Z,16.77
2018-07-12T01:38:54.835Z,15.13
2018-07-12T01:41:21.303Z,21.03
2018-07-12T01:43:47.810Z,12.47
2018-07-12T01:46:14.299Z,16.00
2018-07-12T01:48:40.769Z,16.20
2018-07-12T01:51:07.244Z,18.93
2018-07-12T01:53:33.745Z,18.77
2018-07-12T01:56:00.221Z,17.30
2018-07-12T01:58:26.694Z,21.77
2018-07-12T02:00:53.641Z,15.43
2018-07-12T02:03:20.107Z,15.70
2018-07-12T02:05:46.593Z,20.40
2018-07-12T02:08:13.095Z,21.87
2018-07-12T02:10:39.563Z,18.13
2018-07-12T02:13:06.033Z,18.00
2018-07-12T02:15:32.543Z,22.97
2018-07-12T02:17:59.038Z,20.40
2018-07-12T02:20:25.525Z,23.07
2018-07-12T02:22:52.419Z,18.60
2018-07-12T02:25:18.922Z,21.87
2018-07-12T02:27:45.382Z,24.40
2018-07-12T02:30:11.899Z,21.10
2018-07-12T02:32:38.386Z,24.53
2018-07-12T02:35:04.962Z,20.93
2018-07-12T02:37:31.443Z,28.70
2018-07-12T02:39:57.938Z,20.60
2018-07-12T02:42:24.432Z,21.17
2018-07-12T02:44:51.170Z,22.00
2018-07-12T02:47:18.075Z,23.53
2018-07-12T02:49:44.602Z,25.33
2018-07-12T02:52:11.346Z,22.07
2018-07-12T02:54:37.838Z,20.83
2018-07-12T02:57:04.337Z,19.87
2018-07-12T02:59:30.888Z,23.20
2018-07-12T03:01:57.382Z,21.17
2018-07-12T03:04:23.846Z,24.20
2018-07-12T03:06:50.312Z,17.33
2018-07-12T03:09:16.797Z,23.73
2018-07-12T03:11:43.270Z,20.20
2018-07-12T03:14:09.732Z,21.30
2018-07-12T03:16:36.500Z,20.50
2018-07-12T03:19:03.009Z,16.67
2018-07-12T03:21:29.506Z,15.27
2018-07-12T03:23:56.099Z,19.10
2018-07-12T03:26:22.614Z,23.37
2018-07-12T03:28:49.764Z,18.27
2018-07-12T03:31:16.248Z,20.70
2018-07-12T03:33:42.737Z,21.13
2018-07-12T03:36:09.213Z,25.87
2018-07-12T03:38:36.152Z,17.97
2018-07-12T03:41:02.629Z,19.90
2018-07-12T03:43:29.167Z,27.97
2018-07-12T03:45:55.662Z,20.00
2018-07-12T03:48:22.142Z,21.70
2018-07-12T03:50:48.633Z,17.63
2018-07-12T03:53:15.149Z,18.43
2018-07-12T03:55:41.657Z,20.33
2018-07-12T03:58:08.134Z,22.43
2018-07-12T04:00:34.625Z,23.63
2018-07-12T04:03:01.103Z,24.10
2018-07-12T04:05:28.450Z,21.77
2018-07-12T04:07:54.963Z,24.43
2018-07-12T04:10:21.435Z,21.43
2018-07-12T04:12:48.133Z,25.80
2018-07-12T04:15:14.641Z,25.33
2018-07-12T04:17:41.109Z,23.63
2018-07-12T04:20:07.583Z,34.00
2018-07-12T04:22:35.199Z,31.67
2018-07-12T04:25:01.682Z,25.57
2018-07-12T04:27:28.420Z,30.10
2018-07-12T04:29:56.429Z,25.47
2018-07-12T04:32:22.932Z,31.73
2018-07-12T04:34:50.010Z,26.57
2018-07-12T04:37:16.761Z,27.20
2018-07-12T04:39:43.471Z,20.73
2018-07-12T04:42:09.956Z,23.67
2018-07-12T04:44:36.492Z,18.13
2018-07-12T04:47:03.127Z,20.23
2018-07-12T04:49:29.609Z,14.67
2018-07-12T04:51:58.090Z,16.80
2018-07-12T04:54:26.869Z,16.73
2018-07-12T04:56:53.395Z,18.87
2018-07-12T04:59:20.592Z,24.30
2018-07-12T05:01:47.511Z,22.37
2018-07-12T05:04:13.992Z,17.90
2018-07-12T05:06:40.474Z,25.00
2018-07-12T05:09:08.236Z,19.77
2018-07-12T05:11:34.743Z,18.50
2018-07-12T05:14:01.223Z,25.83
2018-07-12T05:16:27.703Z,23.63
2018-07-12T05:18:54.176Z,24.97
2018-07-12T05:21:20.651Z,21.03
2018-07-12T05:23:47.157Z,20.90
2018-07-12T05:26:13.631Z,24.27
2018-07-12T05:28:40.140Z,23.03
2018-07-12T05:31:06.864Z,19.27
2018-07-12T05:33:33.369Z,25.10
2018-07-12T05:36:02.532Z,26.40
2018-07-12T05:38:30.077Z,27.40
2018-07-12T05:40:57.583Z,33.80
2018-07-12T05:43:25.193Z,31.43
2018-07-12T05:45:52.794Z,29.57
2018-07-12T05:48:20.369Z,28.67
2018-07-12T05:50:49.101Z,24.63
2018-07-12T05:53:18.159Z,29.10
2018-07-12T05:55:45.872Z,29.53
2018-07-12T05:58:13.511Z,21.80
2018-07-12T06:00:41.893Z,29.50
2018-07-12T06:03:09.472Z,24.93
2018-07-12T06:05:37.428Z,29.43
2018-07-12T06:08:06.796Z,24.60
2018-07-12T06:10:35.821Z,26.43
2018-07-12T06:13:04.204Z,26.40
2018-07-12T06:15:31.826Z,23.73
2018-07-12T06:17:59.500Z,22.73
2018-07-12T06:20:27.148Z,27.63
2018-07-12T06:22:54.779Z,27.27
2018-07-12T06:25:22.526Z,29.33
2018-07-12T06:27:50.204Z,25.27
2018-07-12T06:30:17.874Z,28.10
2018-07-12T06:32:45.543Z,26.87
2018-07-12T06:35:13.352Z,27.73
2018-07-12T06:37:41.008Z,29.50
2018-07-12T06:40:08.682Z,25.17
2018-07-12T06:42:36.411Z,24.90
2018-07-12T06:45:05.150Z,25.37
2018-07-12T06:47:32.857Z,29.43
2018-07-12T06:50:00.518Z,25.17
2018-07-12T06:52:29.418Z,23.03
2018-07-12T06:54:57.330Z,21.03
2018-07-12T06:57:25.289Z,25.13
2018-07-12T06:59:53.014Z,22.87
2018-07-12T07:02:20.682Z,25.50
2018-07-12T07:04:48.406Z,25.50
2018-07-12T07:07:16.062Z,21.60
2018-07-12T07:09:43.736Z,20.10
2018-07-12T07:12:11.464Z,23.03
2018-07-12T07:14:39.203Z,27.03
2018-07-12T07:17:07.011Z,20.63
2018-07-12T07:19:34.758Z,22.73
2018-07-12T07:22:02.516Z,25.50
2018-07-12T07:24:30.344Z,33.17
2018-07-12T07:26:58.064Z,24.63
2018-07-12T07:29:25.744Z,29.57
2018-07-12T07:31:53.453Z,21.57
2018-07-12T07:34:21.157Z,21.93
2018-07-12T07:36:48.937Z,25.10
2018-07-12T07:39:16.718Z,26.80
2018-07-12T07:41:44.372Z,25.43
2018-07-12T07:44:12.034Z,23.57
2018-07-12T07:46:39.710Z,24.73
2018-07-12T07:49:07.438Z,32.83
2018-07-12T07:51:35.137Z,20.97
2018-07-12T07:54:02.817Z,16.23
2018-07-12T07:56:30.499Z,16.30
2018-07-12T07:58:58.163Z,18.50
2018-07-12T08:01:27.231Z,22.63
2018-07-12T08:03:58.964Z,15.13
2018-07-12T08:06:26.701Z,22.60
2018-07-12T08:08:54.367Z,12.57
2018-07-12T08:11:22.393Z,13.30
2018-07-12T08:13:50.691Z,12.17
2018-07-12T08:16:19.993Z,12.90
2018-07-12T08:18:47.891Z,16.00
2018-07-12T08:21:16.991Z,10.60
2018-07-12T08:23:46.187Z,14.63
2018-07-12T08:26:14.263Z,10.13
2018-07-12T08:29:30.955Z,28.37
2018-07-12T08:31:58.595Z,11.57
2018-07-12T08:34:26.679Z,13.60
2018-07-12T08:36:54.600Z,13.80
2018-07-12T08:39:22.262Z,12.73
2018-07-12T08:41:51.217Z,10.73
2018-07-12T08:44:32.542Z,12.67
2018-07-12T08:47:01.629Z,9.67
2018-07-12T08:49:31.104Z,8.33
2018-07-12T08:52:02.937Z,7.20
2018-07-12T08:54:30.601Z,16.13
2018-07-12T08:56:58.193Z,13.67
2018-07-12T08:59:25.833Z,12.60
2018-07-12T09:01:53.450Z,10.23
2018-07-12T09:04:21.093Z,13.37
2018-07-12T09:06:48.844Z,11.57
2018-07-12T09:09:16.533Z,14.17
2018-07-12T09:11:44.259Z,11.37
2018-07-12T09:14:11.911Z,11.40
2018-07-12T09:16:39.565Z,18.73
2018-07-12T09:19:07.212Z,13.07
2018-07-12T09:21:34.881Z,13.83
2018-07-12T09:24:02.569Z,15.17
2018-07-12T09:26:30.219Z,8.57
2018-07-12T09:28:57.914Z,12.90
2018-07-12T09:31:25.708Z,14.67
2018-07-12T09:33:53.535Z,14.30
2018-07-12T09:36:21.198Z,10.13
2018-07-12T09:38:50.819Z,18.77
2018-07-12T09:41:19.448Z,11.20
2018-07-12T09:43:47.964Z,10.43
2018-07-12T09:46:15.941Z,17.30
2018-07-12T09:48:45.149Z,10.87
2018-07-12T09:51:13.487Z,12.20
2018-07-12T09:53:42.355Z,10.90
2018-07-12T09:56:10.352Z,9.20
2018-07-12T09:58:38.896Z,11.47
2018-07-12T10:03:14.166Z,15.53
2018-07-12T10:05:47.604Z,10.50
2018-07-12T10:08:20.822Z,6.90
2018-07-12T10:10:55.461Z,11.87
2018-07-12T10:13:24.099Z,13.80
2018-07-12T10:15:57.404Z,10.23
2018-07-12T10:18:27.900Z,11.77
2018-07-12T10:20:55.762Z,13.23
2018-07-12T10:23:23.942Z,9.90
2018-07-12T10:25:51.732Z,8.33
2018-07-12T10:28:19.500Z,11.93
2018-07-12T10:30:47.762Z,9.83
2018-07-12T10:33:16.024Z,9.83
2018-07-12T10:35:43.742Z,10.40
2018-07-12T10:38:11.440Z,10.83
2018-07-12T10:40:39.170Z,13.23
2018-07-12T10:43:07.391Z,9.60
2018-07-12T10:45:35.176Z,10.70
2018-07-12T10:48:03.385Z,11.27
2018-07-12T10:50:31.224Z,8.07
2018-07-12T10:52:58.927Z,6.67
2018-07-12T10:55:26.593Z,10.10
2018-07-12T10:57:54.474Z,7.63
2018-07-12T11:00:22.194Z,7.47
2018-07-12T11:02:49.915Z,8.70
2018-07-12T11:05:17.955Z,6.53
2018-07-12T11:07:45.926Z,6.43
2018-07-12T11:10:14.020Z,14.37
2018-07-12T11:12:41.933Z,7.80
2018-07-12T11:15:09.656Z,8.97
2018-07-12T11:17:37.389Z,5.87
2018-07-12T11:20:05.375Z,7.93
2018-07-12T11:22:33.389Z,7.90
2018-07-12T11:25:01.106Z,8.23
2018-07-12T11:27:28.783Z,12.30
2018-07-12T11:29:57.922Z,13.47
2018-07-12T11:32:25.654Z,14.63
2018-07-12T11:34:53.355Z,9.00
2018-07-12T11:37:23.668Z,10.63
2018-07-12T11:39:51.677Z,8.70
2018-07-12T11:42:19.357Z,7.43
2018-07-12T11:44:47.484Z,7.58
2018-07-12T11:47:15.862Z,11.33
2018-07-12T11:49:43.540Z,9.28
2018-07-12T11:52:11.274Z,8.50
2018-07-12T11:54:38.964Z,13.48
2018-07-12T11:57:06.638Z,7.72
2018-07-12T11:59:34.344Z,9.70
2018-07-12T12:02:02.053Z,8.38
2018-07-12T12:04:29.928Z,11.55
2018-07-12T12:06:57.886Z,8.48
2018-07-12T12:09:25.640Z,7.47
2018-07-12T12:11:53.395Z,7.00
2018-07-12T12:14:21.064Z,8.60
2018-07-12T12:16:48.749Z,7.25
2018-07-12T12:19:16.450Z,11.28
2018-07-12T12:21:44.116Z,7.87
2018-07-12T12:24:11.790Z,7.08
2018-07-12T12:26:39.498Z,11.10
2018-07-12T12:29:07.185Z,6.78
2018-07-12T12:31:34.948Z,7.47
2018-07-12T12:34:03.024Z,7.35
2018-07-12T12:36:30.721Z,9.63
2018-07-12T12:38:58.381Z,6.37
2018-07-12T12:41:26.090Z,9.98
2018-07-12T12:43:53.775Z,6.08
2018-07-12T12:46:21.589Z,9.85
2018-07-12T12:48:49.209Z,9.63
2018-07-12T12:51:16.841Z,8.10
2018-07-12T12:53:44.509Z,8.70
2018-07-12T12:56:12.245Z,7.90
2018-07-12T12:58:40.191Z,6.83
2018-07-12T13:01:07.997Z,6.22
2018-07-12T13:03:35.695Z,6.25
2018-07-12T13:06:03.570Z,8.73
2018-07-12T13:08:31.317Z,6.00
2018-07-12T13:10:59.107Z,6.78
2018-07-12T13:13:26.794Z,7.08
2018-07-12T13:15:54.473Z,11.12
2018-07-12T13:18:22.173Z,11.83
2018-07-12T13:20:49.907Z,15.48
2018-07-12T13:23:17.566Z,13.53
2018-07-12T13:25:45.345Z,10.13
2018-07-12T13:28:13.131Z,12.03
2018-07-12T13:30:40.937Z,9.88
2018-07-12T13:33:08.745Z,18.85
2018-07-12T13:35:36.533Z,16.80
2018-07-12T13:38:04.305Z,11.63
2018-07-12T13:40:31.989Z,12.93
2018-07-12T13:42:59.701Z,10.88
2018-07-12T13:45:27.641Z,16.15
2018-07-12T13:47:55.369Z,8.43
2018-07-12T13:50:23.080Z,11.65
2018-07-12T13:52:50.778Z,8.83
2018-07-12T13:55:18.477Z,10.30
2018-07-12T13:57:46.281Z,5.15
2018-07-12T14:00:14.001Z,4.30
2018-07-12T14:02:41.623Z,5.85
2018-07-12T14:05:09.411Z,9.05
2018-07-12T14:07:37.119Z,7.37
2018-07-12T14:10:05.195Z,8.23
2018-07-12T14:12:32.891Z,6.28
2018-07-12T14:15:00.586Z,4.90
2018-07-12T14:17:28.247Z,4.28
2018-07-12T14:19:55.931Z,3.37
2018-07-12T14:22:23.736Z,4.53
2018-07-12T14:24:51.412Z,8.55
2018-07-12T14:27:19.085Z,5.62
2018-07-12T14:29:46.781Z,4.17
2018-07-12T14:32:14.452Z,6.22
2018-07-12T14:34:42.133Z,5.08
2018-07-12T14:37:09.851Z,5.42
2018-07-12T14:39:37.514Z,7.37
2018-07-12T14:42:05.189Z,4.42
2018-07-12T14:44:32.881Z,5.92
2018-07-12T14:47:00.532Z,3.08
2018-07-12T14:49:28.282Z,4.28
2018-07-12T14:51:55.950Z,3.00
2018-07-12T14:54:23.689Z,3.77
2018-07-12T14:56:51.360Z,3.85
2018-07-12T14:59:19.054Z,4.92
2018-07-12T15:01:46.755Z,3.47
2018-07-12T15:04:14.381Z,3.90
2018-07-12T15:06:42.083Z,4.72
2018-07-12T15:09:09.894Z,4.83
2018-07-12T15:11:37.693Z,5.25
2018-07-12T15:14:05.625Z,3.85
2018-07-12T15:16:33.342Z,3.30
2018-07-12T15:19:01.146Z,2.85
2018-07-12T15:21:28.800Z,6.37
2018-07-12T15:23:56.414Z,5.65
2018-07-12T15:26:24.173Z,6.58
2018-07-12T15:28:51.785Z,3.87
2018-07-12T15:31:19.462Z,5.47
2018-07-12T15:33:47.066Z,7.42
2018-07-12T15:36:14.758Z,5.08
2018-07-12T15:38:42.408Z,8.48
2018-07-12T15:41:10.105Z,6.10
2018-07-12T15:43:37.840Z,10.85
2018-07-12T15:46:05.706Z,4.47
2018-07-12T15:48:33.392Z,5.12
2018-07-12T15:51:01.098Z,3.90
2018-07-12T15:53:28.772Z,6.12
2018-07-12T15:55:56.453Z,4.53
2018-07-12T15:58:24.150Z,5.40
2018-07-12T16:00:51.837Z,4.15
2018-07-12T16:03:19.566Z,10.10
2018-07-12T16:05:47.269Z,3.05
2018-07-12T16:08:15.256Z,7.28
2018-07-12T16:10:42.990Z,5.03
2018-07-12T16:13:10.706Z,7.72
2018-07-12T16:15:38.440Z,10.08
2018-07-12T16:18:06.160Z,4.78
2018-07-12T16:20:33.874Z,9.20
2018-07-12T16:23:02.468Z,4.12
2018-07-12T16:25:30.356Z,7.22
2018-07-12T16:27:58.047Z,5.28
2018-07-12T16:30:25.795Z,7.45
2018-07-12T16:32:53.495Z,8.53
2018-07-12T16:35:21.170Z,6.58
2018-07-12T16:37:48.897Z,6.85
2018-07-12T16:40:16.567Z,7.95
2018-07-12T16:42:44.238Z,6.05
2018-07-12T16:45:12.003Z,6.28
2018-07-12T16:47:39.690Z,8.50
2018-07-12T16:50:07.477Z,5.45
2018-07-12T16:52:35.058Z,5.92
2018-07-12T16:55:02.831Z,4.53
2018-07-12T16:57:30.552Z,9.50
2018-07-12T16:59:58.270Z,3.90
2018-07-12T17:02:25.960Z,5.30
2018-07-12T17:04:53.753Z,7.33
2018-07-12T17:07:21.612Z,8.80
2018-07-12T17:09:49.199Z,4.75
2018-07-12T17:12:16.878Z,6.60
2018-07-12T17:14:44.562Z,4.08
2018-07-12T17:17:12.279Z,6.75
2018-07-12T17:19:40.016Z,8.68
2018-07-12T17:22:08.025Z,8.90
2018-07-12T17:24:35.784Z,4.33
2018-07-12T17:27:03.503Z,5.30
2018-07-12T17:29:31.216Z,7.47
2018-07-12T17:31:58.951Z,5.30
2018-07-12T17:34:26.564Z,6.67
2018-07-12T17:36:54.358Z,6.97
2018-07-12T17:39:22.033Z,3.45
2018-07-12T17:41:49.813Z,3.22
2018-07-12T17:44:17.406Z,5.37
2018-07-12T17:46:45.077Z,3.92
2018-07-12T17:49:12.842Z,6.05
2018-07-12T17:51:40.517Z,7.50
2018-07-12T17:54:08.208Z,5.45
2018-07-12T17:56:36.035Z,6.72
2018-07-12T17:59:03.759Z,5.25
2018-07-12T18:01:31.469Z,8.55
2018-07-12T18:03:59.173Z,8.03
2018-07-12T18:06:26.854Z,4.20
2018-07-12T18:08:54.535Z,2.70
2018-07-12T18:11:22.259Z,6.45
2018-07-12T18:13:50.293Z,4.83
2018-07-12T18:16:17.993Z,4.12
2018-07-12T18:18:45.752Z,4.97
2018-07-12T18:21:13.351Z,5.72
2018-07-12T18:23:40.994Z,8.05
2018-07-12T18:26:08.771Z,4.25
2018-07-12T18:28:36.413Z,8.73
2018-07-12T18:31:04.128Z,5.47
2018-07-12T18:33:31.839Z,3.85
2018-07-12T18:35:59.503Z,5.92
2018-07-12T18:38:27.181Z,4.63
2018-07-12T18:40:54.851Z,5.10
2018-07-12T18:43:22.599Z,8.07
2018-07-12T18:45:50.627Z,5.37
2018-07-12T18:48:18.656Z,4.93
2018-07-12T18:50:46.586Z,5.30
2018-07-12T18:53:14.249Z,8.20
2018-07-12T18:55:41.897Z,6.80
2018-07-12T18:58:09.625Z,5.57
2018-07-12T19:00:37.292Z,4.20
2018-07-12T19:03:05.070Z,9.80
2018-07-12T19:05:32.715Z,7.17
2018-07-12T19:08:00.431Z,3.10
2018-07-12T19:10:28.095Z,9.70
2018-07-12T19:12:55.834Z,6.40
2018-07-12T19:15:23.549Z,6.73
2018-07-12T19:17:51.311Z,6.37
2018-07-12T19:20:19.055Z,4.30
2018-07-12T19:22:46.758Z,2.80
2018-07-12T19:25:14.490Z,7.80
2018-07-12T19:27:42.180Z,12.47
2018-07-12T19:30:10.016Z,3.30
2018-07-12T19:32:37.684Z,7.77
2018-07-12T19:35:05.516Z,11.80
2018-07-12T19:37:33.276Z,3.87
2018-07-12T19:40:01.136Z,9.97
2018-07-12T19:42:28.944Z,4.33
2018-07-12T19:44:56.604Z,5.43
2018-07-12T19:47:24.287Z,7.57
2018-07-12T19:49:51.955Z,9.60
2018-07-12T19:52:19.624Z,3.67
2018-07-12T19:54:47.568Z,5.00
2018-07-12T19:57:15.240Z,5.90
2018-07-12T19:59:42.961Z,6.40
2018-07-12T20:02:10.840Z,10.60
2018-07-12T20:04:38.570Z,4.47
2018-07-12T20:07:06.402Z,7.93
2018-07-12T20:09:34.162Z,3.70
2018-07-12T20:12:02.027Z,5.37
2018-07-12T20:14:29.782Z,6.83
2018-07-12T20:16:57.496Z,4.57
2018-07-12T20:19:25.326Z,4.53
2018-07-12T20:21:53.118Z,5.87
2018-07-12T20:24:20.851Z,10.83
2018-07-12T20:26:48.764Z,8.83
2018-07-12T20:29:16.600Z,5.77
2018-07-12T20:31:44.300Z,5.50
2018-07-12T20:34:12.134Z,3.97
2018-07-12T20:36:39.794Z,4.07
2018-07-12T20:39:08.216Z,4.47
2018-07-12T20:41:36.232Z,6.47
2018-07-12T20:44:04.043Z,6.10
2018-07-12T20:46:31.705Z,4.63
2018-07-12T20:48:59.596Z,5.77
2018-07-12T20:51:27.264Z,7.53
2018-07-12T20:53:55.124Z,3.27
2018-07-12T20:56:22.825Z,5.23
2018-07-12T20:58:50.652Z,5.13
2018-07-12T21:01:18.540Z,5.07
2018-07-12T21:03:46.235Z,7.67
2018-07-12T21:06:13.884Z,4.63
2018-07-12T21:08:41.574Z,7.87
2018-07-12T21:11:09.324Z,4.00
2018-07-12T21:13:36.988Z,6.77
2018-07-12T21:16:05.330Z,3.77
2018-07-12T21:18:33.046Z,4.53
2018-07-12T21:21:00.946Z,10.07
2018-07-12T21:23:28.609Z,6.87
2018-07-12T21:25:56.362Z,4.97
2018-07-12T21:28:24.061Z,6.00
2018-07-12T21:30:51.725Z,6.03
2018-07-12T21:33:19.460Z,7.07
2018-07-12T21:35:47.080Z,5.10
2018-07-12T21:38:14.741Z,6.73
2018-07-12T21:40:43.043Z,9.10
2018-07-12T21:43:10.797Z,9.27
2018-07-12T21:45:38.539Z,6.03
2018-07-12T21:48:06.266Z,7.27
2018-07-12T21:50:33.953Z,5.13
2018-07-12T21:53:01.684Z,6.40
2018-07-12T21:55:29.313Z,6.27
2018-07-12T21:57:56.945Z,5.07
2018-07-12T22:00:24.605Z,7.10
2018-07-12T22:02:52.312Z,7.17
2018-07-12T22:05:19.965Z,7.30
2018-07-12T22:07:58.665Z,9.43
2018-07-12T22:10:26.555Z,8.50
2018-07-12T22:12:54.269Z,4.37
2018-07-12T22:15:22.001Z,7.63
2018-07-12T22:17:49.851Z,8.37
2018-07-12T22:20:17.449Z,6.73
2018-07-12T22:22:45.277Z,7.77
2018-07-12T22:25:13.103Z,6.57
2018-07-12T22:27:40.805Z,7.93
2018-07-12T22:30:08.500Z,8.67
2018-07-12T22:32:36.230Z,13.97
2018-07-12T22:35:03.905Z,6.00
2018-07-12T22:37:31.585Z,9.13
2018-07-12T22:39:59.251Z,11.10
2018-07-12T22:42:26.914Z,5.97
2018-07-12T22:44:54.578Z,10.00
2018-07-12T22:47:22.473Z,12.33
2018-07-12T22:49:50.112Z,5.50
2018-07-12T22:52:20.279Z,9.30
2018-07-12T22:54:48.753Z,6.37
2018-07-12T22:57:16.430Z,9.83
2018-07-12T22:59:44.116Z,6.30
2018-07-12T23:02:11.798Z,9.73
2018-07-12T23:04:39.501Z,6.77
2018-07-12T23:07:07.437Z,11.70
2018-07-12T23:09:35.123Z,7.47
2018-07-12T23:12:03.310Z,9.03
2018-07-12T23:14:31.031Z,9.60
2018-07-12T23:16:58.849Z,9.83
2018-07-12T23:19:26.507Z,8.30
2018-07-12T23:21:54.193Z,9.13
2018-07-12T23:24:21.877Z,8.27
2018-07-12T23:26:49.555Z,9.77
2018-07-12T23:29:17.243Z,10.87
2018-07-12T23:31:44.854Z,12.63
2018-07-12T23:34:12.531Z,11.17
2018-07-12T23:36:40.367Z,8.13
2018-07-12T23:39:08.699Z,9.00
2018-07-12T23:41:36.503Z,14.63
2018-07-12T23:44:04.203Z,10.00
2018-07-12T23:46:32.053Z,15.30
2018-07-12T23:48:59.871Z,11.33
2018-07-12T23:51:27.546Z,8.67
2018-07-12T23:53:55.202Z,11.80
2018-07-12T23:56:22.867Z,10.37
2018-07-12T23:58:51.230Z,8.33
